Time;durP1;ratioP1;P1;durP2;ratioP2;P2;SDS_P1;SDS_P2;PMS_P1;PMS_P2;Temp;Humidity;BMP_temperature;BMP_pressure;BME280_temperature;BME280_humidity;BME280_pressure;Samples;Min_cycle;Max_cycle;Signal;HPM_P1;HPM_P2
2021/12/20 00:01:39;;;;;;;4.70;2.30;;;14.00;78.20;;;;;;5167720;28;20068;-31
2021/12/20 00:04:10;;;;;;;3.63;1.93;;;14.00;78.20;;;;;;5185730;28;20096;-31
2021/12/20 00:06:40;;;;;;;6.27;2.63;;;14.00;78.40;;;;;;5167879;28;20073;-31
2021/12/20 00:09:11;;;;;;;4.60;2.40;;;14.00;78.30;;;;;;5185507;28;20042;-31
2021/12/20 00:11:43;;;;;;;4.43;1.60;;;14.00;78.30;;;;;;5185086;28;20056;-32
2021/12/20 00:14:14;;;;;;;4.93;2.30;;;14.00;78.10;;;;;;5185341;28;20487;-31
2021/12/20 00:16:45;;;;;;;4.40;2.37;;;14.00;78.20;;;;;;5185491;28;20052;-31
2021/12/20 00:19:16;;;;;;;3.23;1.70;;;14.00;78.10;;;;;;5185136;28;20117;-33
2021/12/20 00:21:47;;;;;;;5.17;2.20;;;14.00;78.10;;;;;;5167582;28;20124;-31
2021/12/20 00:24:19;;;;;;;5.07;2.30;;;14.00;78.30;;;;;;5184947;28;20061;-31
2021/12/20 00:26:49;;;;;;;4.27;2.40;;;14.00;78.40;;;;;;5185147;28;20137;-33
2021/12/20 00:29:21;;;;;;;8.60;4.57;;;14.00;78.20;;;;;;5185012;28;20059;-31
2021/12/20 00:31:51;;;;;;;10.23;5.40;;;13.90;78.10;;;;;;5185082;28;20042;-30
2021/12/20 00:34:23;;;;;;;9.70;4.63;;;13.90;78.50;;;;;;5185318;28;20476;-31
2021/12/20 00:37:02;;;;;;;9.10;4.67;;;13.90;78.50;;;;;;5185260;28;20049;-31
2021/12/20 00:42:23;;;;;;;7.20;2.73;;;13.90;78.60;;;;;;5184551;28;20049;-33
2021/12/20 00:44:54;;;;;;;4.43;2.70;;;13.80;78.40;;;;;;5184787;28;20050;-31
2021/12/20 00:47:25;;;;;;;3.97;2.17;;;13.70;78.60;;;;;;5184285;28;20054;-31
2021/12/20 00:49:56;;;;;;;4.70;2.37;;;13.70;78.40;;;;;;5184785;28;20053;-33
2021/12/20 00:52:27;;;;;;;5.20;2.33;;;13.70;78.60;;;;;;5184651;28;20034;-30
2021/12/20 00:54:58;;;;;;;4.87;2.17;;;13.70;78.60;;;;;;5165852;28;20037;-31
2021/12/20 00:57:29;;;;;;;6.07;3.20;;;13.70;78.80;;;;;;5184848;28;20049;-30
2021/12/20 01:00:00;;;;;;;5.23;2.03;;;13.70;78.60;;;;;;5185044;28;20120;-32
2021/12/20 01:02:31;;;;;;;6.50;4.00;;;13.70;78.60;;;;;;5184669;28;20078;-30
2021/12/20 01:05:03;;;;;;;6.50;2.97;;;13.70;78.80;;;;;;5166619;28;20045;-31
2021/12/20 01:07:34;;;;;;;5.90;3.43;;;13.60;78.50;;;;;;5171550;28;20484;-31
2021/12/20 01:10:07;;;;;;;4.03;2.47;;;13.70;78.60;;;;;;5184530;28;20060;-33
2021/12/20 01:12:47;;;;;;;;;;;13.70;78.70;;;;;;5185176;28;20818;-32
2021/12/20 01:15:21;;;;;;;5.23;2.90;;;13.70;78.40;;;;;;5163155;28;19926;-31
2021/12/20 01:17:52;;;;;;;5.87;3.67;;;13.70;78.60;;;;;;5167311;28;20149;-32
2021/12/20 01:20:23;;;;;;;6.37;3.27;;;13.80;78.60;;;;;;5163141;28;20065;-31
2021/12/20 01:22:54;;;;;;;4.43;2.23;;;13.80;78.60;;;;;;5184452;28;20046;-31
2021/12/20 01:25:25;;;;;;;3.13;1.50;;;13.90;78.70;;;;;;5184247;28;20107;-30
2021/12/20 01:27:56;;;;;;;6.13;2.70;;;13.90;78.70;;;;;;5166294;28;20519;-31
2021/12/20 01:30:28;;;;;;;7.20;3.50;;;13.80;78.70;;;;;;5166430;28;20037;-30
2021/12/20 01:32:58;;;;;;;7.77;2.93;;;13.80;78.80;;;;;;5166989;28;20041;-31
2021/12/20 01:35:30;;;;;;;5.43;2.33;;;13.80;78.80;;;;;;5184328;28;20050;-31
2021/12/20 01:38:01;;;;;;;4.73;1.87;;;13.80;79.00;;;;;;5184290;28;20038;-31
2021/12/20 01:40:32;;;;;;;5.87;1.93;;;13.80;78.90;;;;;;5184307;28;20069;-31
2021/12/20 01:43:04;;;;;;;3.20;1.90;;;13.70;78.90;;;;;;5166541;28;20058;-31
2021/12/20 01:45:35;;;;;;;3.43;1.57;;;13.80;79.10;;;;;;5183980;28;20495;-31
2021/12/20 01:48:11;;;;;;;3.53;1.67;;;13.70;79.00;;;;;;5184344;28;20038;-31
2021/12/20 01:53:19;;;;;;;6.70;1.73;;;13.70;79.20;;;;;;5166447;28;20042;-31
2021/12/20 01:55:51;;;;;;;4.40;1.80;;;13.80;79.30;;;;;;5184193;28;20046;-33
2021/12/20 01:58:23;;;;;;;2.67;1.63;;;13.80;79.30;;;;;;5166625;28;20068;-33
2021/12/20 02:03:43;;;;;;;5.47;2.00;;;13.70;79.10;;;;;;5183959;28;20048;-32
2021/12/20 02:06:23;;;;;;;4.43;2.10;;;13.80;79.50;;;;;;5166891;28;20515;-32
2021/12/20 02:08:57;;;;;;;3.93;1.47;;;13.80;79.40;;;;;;5167935;28;20507;-32
2021/12/20 02:11:28;;;;;;;5.90;2.63;;;13.80;79.40;;;;;;5183642;28;20048;-31
2021/12/20 02:13:59;;;;;;;4.13;2.07;;;13.80;79.50;;;;;;5166361;28;20038;-31
2021/12/20 02:16:30;;;;;;;4.87;2.10;;;13.80;79.60;;;;;;5184260;28;20092;-31
2021/12/20 02:19:02;;;;;;;3.73;1.57;;;13.70;80.10;;;;;;5166289;28;20537;-31
2021/12/20 02:21:33;;;;;;;4.13;1.63;;;13.70;80.40;;;;;;5150487;28;20129;-32
2021/12/20 02:24:04;;;;;;;3.17;1.50;;;13.70;81.20;;;;;;5183725;28;20042;-30
2021/12/20 02:26:36;;;;;;;5.37;1.53;;;13.70;81.40;;;;;;5184663;28;20049;-31
2021/12/20 02:29:09;;;;;;;4.17;1.90;;;13.70;81.50;;;;;;5170185;28;20049;-31
2021/12/20 02:37:37;;;;;;;2.03;1.27;;;13.70;81.40;;;;;;5187468;28;20092;-31
2021/12/20 02:40:09;;;;;;;4.43;1.50;;;13.60;81.50;;;;;;5187409;28;20131;-33
2021/12/20 02:42:42;;;;;;;2.30;1.47;;;13.70;81.70;;;;;;5186986;28;20077;-31
2021/12/20 02:45:15;;;;;;;3.45;1.73;;;13.60;81.70;;;;;;5185322;28;20052;-31
2021/12/20 02:47:46;;;;;;;4.13;1.80;;;13.60;81.70;;;;;;5187031;28;20046;-31
2021/12/20 02:50:17;;;;;;;5.03;2.03;;;13.60;81.60;;;;;;5187192;28;20053;-31
2021/12/20 02:52:48;;;;;;;5.97;1.80;;;13.60;81.60;;;;;;5186956;28;20431;-31
2021/12/20 02:55:19;;;;;;;3.30;1.53;;;13.60;81.60;;;;;;5186943;28;20042;-32
2021/12/20 02:57:50;;;;;;;3.23;1.00;;;13.60;81.70;;;;;;5185794;28;20053;-32
2021/12/20 03:00:21;;;;;;;2.67;1.20;;;13.50;81.50;;;;;;5169495;28;20669;-31
2021/12/20 03:02:52;;;;;;;2.50;1.43;;;13.60;81.70;;;;;;5168128;28;20046;-33
2021/12/20 03:05:23;;;;;;;3.80;1.40;;;13.50;81.70;;;;;;5183276;28;20504;-31
2021/12/20 03:07:55;;;;;;;3.40;1.80;;;13.50;81.80;;;;;;5176464;28;20443;-33
2021/12/20 03:10:27;;;;;;;3.50;1.60;;;13.50;82.00;;;;;;5168961;28;20153;-31
2021/12/20 03:12:59;;;;;;;3.13;1.30;;;13.50;81.90;;;;;;5185627;28;20045;-31
2021/12/20 03:15:29;;;;;;;2.27;1.13;;;13.50;82.00;;;;;;5186570;28;20397;-33
2021/12/20 03:18:01;;;;;;;3.13;1.17;;;13.40;82.60;;;;;;5185464;28;20042;-31
2021/12/20 03:20:32;;;;;;;2.43;1.20;;;13.30;82.30;;;;;;5186340;28;20076;-31
2021/12/20 03:23:03;;;;;;;4.20;1.63;;;13.30;82.40;;;;;;5185112;28;20050;-31
2021/12/20 03:25:34;;;;;;;3.93;1.40;;;13.20;82.50;;;;;;5186456;28;20046;-31
2021/12/20 03:28:05;;;;;;;4.67;1.40;;;13.20;82.70;;;;;;5186474;28;20046;-31
2021/12/20 03:30:36;;;;;;;3.13;1.13;;;13.20;83.00;;;;;;5186235;28;20074;-31
2021/12/20 03:33:07;;;;;;;2.53;1.23;;;13.30;82.90;;;;;;5186239;28;20038;-31
2021/12/20 03:35:38;;;;;;;3.27;1.07;;;13.30;82.60;;;;;;5186308;28;20413;-30
2021/12/20 03:38:09;;;;;;;2.70;1.00;;;13.30;82.60;;;;;;5186045;28;20095;-31
2021/12/20 03:40:40;;;;;;;2.63;1.03;;;13.30;82.50;;;;;;5186103;28;20046;-33
2021/12/20 03:43:12;;;;;;;3.07;1.30;;;13.40;82.40;;;;;;5185894;28;20100;-31
2021/12/20 03:45:45;;;;;;;1.87;0.80;;;13.40;82.50;;;;;;5185546;28;20077;-33
2021/12/20 03:48:16;;;;;;;2.50;1.00;;;13.30;82.60;;;;;;5185733;28;20557;-32
2021/12/20 03:50:46;;;;;;;2.53;1.50;;;13.30;82.70;;;;;;5185209;28;20050;-31
2021/12/20 03:53:18;;;;;;;3.37;1.33;;;13.30;82.70;;;;;;5167983;28;20038;-31
2021/12/20 03:55:49;;;;;;;3.03;1.27;;;13.30;82.60;;;;;;5167788;28;20087;-31
2021/12/20 03:58:20;;;;;;;2.40;1.30;;;13.40;82.60;;;;;;5185339;28;20128;-31
2021/12/20 04:00:51;;;;;;;3.27;1.70;;;13.30;82.80;;;;;;5185237;28;20053;-30
2021/12/20 04:03:22;;;;;;;3.23;1.27;;;13.30;83.10;;;;;;5185448;28;20066;-33
2021/12/20 04:05:53;;;;;;;2.20;0.90;;;13.30;83.00;;;;;;5168328;28;20129;-31
2021/12/20 04:08:24;;;;;;;3.03;1.27;;;13.40;83.10;;;;;;5184938;28;20042;-30
2021/12/20 04:10:57;;;;;;;1.90;1.13;;;13.40;83.20;;;;;;5185513;28;20479;-31
2021/12/20 04:19:25;;;;;;;2.47;1.17;;;13.30;82.90;;;;;;5185435;28;20558;-31
2021/12/20 04:21:56;;;;;;;2.20;1.10;;;13.20;82.90;;;;;;5185521;28;20127;-30
2021/12/20 04:24:27;;;;;;;1.27;0.70;;;13.10;83.10;;;;;;5184924;28;20057;-31
2021/12/20 04:26:58;;;;;;;2.47;0.90;;;13.20;83.20;;;;;;5185335;28;20109;-30
2021/12/20 04:29:29;;;;;;;2.13;1.37;;;13.10;83.20;;;;;;5184640;28;20543;-30
2021/12/20 04:32:00;;;;;;;1.83;0.87;;;13.10;83.30;;;;;;5185343;28;20046;-31
2021/12/20 04:34:31;;;;;;;3.43;1.00;;;13.20;83.80;;;;;;5151166;28;20053;-32
2021/12/20 04:37:03;;;;;;;2.67;0.90;;;13.20;83.10;;;;;;5151471;28;20038;-30
2021/12/20 04:39:35;;;;;;;2.83;1.47;;;13.30;83.20;;;;;;5185027;28;20101;-33
2021/12/20 04:42:08;;;;;;;4.63;1.20;;;13.30;83.00;;;;;;5184439;28;20464;-32
2021/12/20 04:44:39;;;;;;;2.08;1.08;;;13.20;83.00;;;;;;5184906;28;20046;-30
2021/12/20 04:47:10;;;;;;;2.93;1.17;;;13.20;83.10;;;;;;5167669;28;20496;-33
2021/12/20 04:49:41;;;;;;;2.40;1.30;;;13.10;83.00;;;;;;5184272;28;20046;-31
2021/12/20 04:52:13;;;;;;;2.33;1.20;;;13.20;83.30;;;;;;5166860;28;20448;-31
2021/12/20 04:54:45;;;;;;;2.20;1.00;;;13.20;83.20;;;;;;5184872;28;20076;-33
2021/12/20 04:57:16;;;;;;;4.87;0.90;;;13.30;83.80;;;;;;5182995;28;20073;-30
2021/12/20 04:59:46;;;;;;;1.80;1.00;;;13.30;83.90;;;;;;5184796;28;20076;-31
2021/12/20 05:02:18;;;;;;;2.13;1.00;;;13.30;83.20;;;;;;5183753;28;20058;-33
2021/12/20 05:04:48;;;;;;;2.03;1.07;;;13.30;83.80;;;;;;5166789;28;20046;-31
2021/12/20 05:07:20;;;;;;;3.00;1.30;;;13.30;83.40;;;;;;5170520;28;20484;-31
2021/12/20 05:09:57;;;;;;;2.03;1.00;;;13.20;83.30;;;;;;5183816;28;20056;-33
2021/12/20 05:12:28;;;;;;;2.73;1.00;;;13.20;83.20;;;;;;5167582;28;20058;-31
2021/12/20 05:14:59;;;;;;;1.40;0.70;;;13.30;83.10;;;;;;5184658;28;20095;-30
2021/12/20 05:17:30;;;;;;;2.20;0.93;;;13.30;83.20;;;;;;5184212;28;20165;-30
2021/12/20 05:20:01;;;;;;;2.10;0.70;;;13.40;83.30;;;;;;5163291;28;20503;-31
2021/12/20 05:22:32;;;;;;;3.27;1.40;;;13.30;83.00;;;;;;5181546;28;20050;-31
2021/12/20 05:25:03;;;;;;;3.90;1.67;;;13.40;83.30;;;;;;5184227;28;20049;-31
2021/12/20 05:27:35;;;;;;;2.67;1.30;;;13.30;83.20;;;;;;5166319;28;20046;-31
2021/12/20 05:30:06;;;;;;;3.40;1.50;;;13.30;83.30;;;;;;5183848;28;20049;-31
2021/12/20 05:32:39;;;;;;;2.53;1.40;;;13.30;83.20;;;;;;5148963;28;20042;-33
2021/12/20 05:35:11;;;;;;;2.37;1.43;;;13.20;83.70;;;;;;5166265;28;20719;-31
2021/12/20 05:37:42;;;;;;;2.57;1.40;;;13.20;83.60;;;;;;5184041;28;20045;-30
2021/12/20 05:40:13;;;;;;;3.53;1.10;;;13.20;83.80;;;;;;5184124;28;20042;-30
2021/12/20 05:42:48;;;;;;;2.77;1.27;;;13.20;83.90;;;;;;5166209;28;20213;-30
2021/12/20 05:45:19;;;;;;;3.73;1.27;;;13.10;84.20;;;;;;5167383;28;20053;-32
2021/12/20 05:47:50;;;;;;;4.43;1.90;;;13.20;84.50;;;;;;5184179;28;20448;-31
2021/12/20 05:50:21;;;;;;;4.63;1.80;;;13.20;84.40;;;;;;5184327;28;20062;-31
2021/12/20 05:52:52;;;;;;;3.73;1.30;;;13.30;84.60;;;;;;5183899;28;20075;-31
2021/12/20 05:55:23;;;;;;;3.43;1.30;;;13.30;84.50;;;;;;5166949;28;20468;-30
2021/12/20 05:57:54;;;;;;;3.90;1.17;;;13.30;84.50;;;;;;5183987;28;20042;-30
2021/12/20 06:00:25;;;;;;;2.57;1.10;;;13.30;84.60;;;;;;5167550;28;20038;-31
2021/12/20 06:02:56;;;;;;;;;;;13.30;84.40;;;;;;5170905;28;20477;-29
2021/12/20 06:05:27;;;;;;;9.57;3.67;;;12.30;85.20;;;;;;5184199;28;20021;-29
2021/12/20 06:07:58;;;;;;;4.07;2.00;;;11.20;88.60;;;;;;5178051;28;20057;-29
2021/12/20 06:10:29;;;;;;;4.97;2.37;;;10.70;90.00;;;;;;5187791;28;20049;-30
2021/12/20 06:13:01;;;;;;;3.87;1.70;;;10.40;90.20;;;;;;5187087;28;20054;-29
2021/12/20 06:15:32;;;;;;;2.40;1.47;;;10.30;90.40;;;;;;5170187;28;21678;-29
2021/12/20 06:18:03;;;;;;;2.63;1.53;;;10.20;90.70;;;;;;5187784;28;20057;-30
2021/12/20 06:20:34;;;;;;;2.50;1.10;;;10.20;90.70;;;;;;5188938;28;20049;-30
2021/12/20 06:23:05;;;;;;;4.30;1.77;;;10.10;90.80;;;;;;5190357;28;20124;-30
2021/12/20 06:25:35;;;;;;;3.10;1.63;;;10.10;90.80;;;;;;5189630;28;20122;-30
2021/12/20 06:28:07;;;;;;;2.07;1.20;;;10.10;91.00;;;;;;5172859;28;20073;-30
2021/12/20 06:30:37;;;;;;;3.27;1.30;;;10.00;90.90;;;;;;5189815;28;20077;-30
2021/12/20 06:33:11;;;;;;;2.78;1.13;;;10.00;91.00;;;;;;5172621;28;20042;-30
2021/12/20 06:35:41;;;;;;;2.53;1.30;;;9.90;91.10;;;;;;5189730;28;20052;-30
2021/12/20 06:38:19;;;;;;;2.17;1.17;;;9.90;91.20;;;;;;5189670;28;20068;-30
2021/12/20 06:40:50;;;;;;;6.93;2.47;;;9.80;91.40;;;;;;5171484;28;20132;-30
2021/12/20 06:43:22;;;;;;;4.10;2.10;;;9.80;91.30;;;;;;5189412;28;20392;-30
2021/12/20 06:45:53;;;;;;;3.70;1.73;;;9.70;91.40;;;;;;5189394;28;20069;-30
2021/12/20 06:48:24;;;;;;;4.47;1.83;;;9.70;91.30;;;;;;5171822;28;20056;-29
2021/12/20 06:50:55;;;;;;;3.13;1.50;;;9.70;91.30;;;;;;5171656;28;20049;-30
2021/12/20 06:53:27;;;;;;;3.00;1.57;;;9.60;91.20;;;;;;5172319;28;20061;-30
2021/12/20 06:55:58;;;;;;;3.00;1.47;;;9.60;91.40;;;;;;5195602;28;20055;-30
2021/12/20 06:58:29;;;;;;;4.50;2.30;;;9.50;91.40;;;;;;5209029;28;20049;-30
2021/12/20 07:01:00;;;;;;;6.33;2.60;;;9.50;91.50;;;;;;5209710;28;20072;-29
2021/12/20 07:03:31;;;;;;;6.37;2.97;;;9.50;91.60;;;;;;5191928;28;20037;-30
2021/12/20 07:06:02;;;;;;;6.77;2.03;;;9.40;91.50;;;;;;5209269;28;20140;-31
2021/12/20 07:08:33;;;;;;;5.43;2.03;;;9.90;91.40;;;;;;5209379;28;20403;-31
2021/12/20 07:11:05;;;;;;;3.00;1.40;;;10.50;90.70;;;;;;5175780;28;20049;-31
2021/12/20 07:13:37;;;;;;;3.80;1.60;;;11.00;90.10;;;;;;5173765;28;24462;-30
2021/12/20 07:16:08;;;;;;;5.40;2.37;;;11.40;89.30;;;;;;5175634;28;20053;-30
2021/12/20 07:18:40;;;;;;;5.33;2.13;;;11.60;88.40;;;;;;5209435;28;20454;-31
2021/12/20 07:21:12;;;;;;;4.53;2.30;;;11.90;87.50;;;;;;5209142;28;20133;-31
2021/12/20 07:23:43;;;;;;;4.32;1.80;;;12.10;86.90;;;;;;5208479;28;20049;-31
2021/12/20 08:14:29;;;;;;;59.03;36.17;;;13.50;83.30;;;;;;5186860;28;20083;-32
2021/12/20 08:17:05;;;;;;;30.70;19.50;;;13.60;83.20;;;;;;5142929;28;20073;-33
2021/12/20 08:19:40;;;;;;;19.77;12.80;;;13.60;83.00;;;;;;5188309;28;20042;-31
2021/12/20 08:22:11;;;;;;;11.43;6.30;;;13.60;82.70;;;;;;5187355;28;20046;-31
2021/12/20 08:24:48;;;;;;;8.07;5.73;;;13.60;82.70;;;;;;5186454;28;20103;-30
2021/12/20 08:27:21;;;;;;;7.70;5.13;;;13.60;82.80;;;;;;5187677;28;20516;-30
2021/12/20 08:29:52;;;;;;;9.77;5.40;;;13.50;82.80;;;;;;5187776;28;20100;-31
2021/12/20 08:32:23;;;;;;;19.17;10.70;;;13.60;82.60;;;;;;5170026;28;20700;-30
2021/12/20 08:34:54;;;;;;;10.30;5.20;;;13.60;82.90;;;;;;5185110;28;20041;-30
2021/12/20 08:37:25;;;;;;;6.87;3.37;;;13.50;82.80;;;;;;5186973;28;20112;-30
2021/12/20 08:40:04;;;;;;;5.40;3.13;;;13.40;82.60;;;;;;5169210;28;20184;-31
2021/12/20 08:42:36;;;;;;;5.73;2.90;;;13.40;82.60;;;;;;5169914;28;20092;-31
2021/12/20 08:45:08;;;;;;;5.20;3.20;;;13.40;82.50;;;;;;5166983;28;20045;-30
2021/12/20 08:47:46;;;;;;;6.53;3.80;;;13.40;82.30;;;;;;5169179;28;20066;-31
2021/12/20 08:50:21;;;;;;;6.37;3.77;;;13.40;82.20;;;;;;5169783;28;20455;-30
2021/12/20 08:53:01;;;;;;;4.60;3.17;;;13.40;82.00;;;;;;5170100;28;20070;-31
2021/12/20 08:55:47;;;;;;;7.40;3.93;;;13.40;81.70;;;;;;5186809;28;20426;-31
2021/12/20 08:58:24;;;;;;;6.20;3.33;;;13.50;81.90;;;;;;5186855;28;20057;-31
2021/12/20 09:00:55;;;;;;;5.50;3.65;;;13.40;81.50;;;;;;5186579;28;20406;-31
2021/12/20 09:03:32;;;;;;;6.47;4.10;;;13.40;81.20;;;;;;5170289;28;20068;-32
2021/12/20 09:06:07;;;;;;;4.77;2.90;;;13.40;81.20;;;;;;5168988;28;20538;-30
2021/12/20 09:08:53;;;;;;;5.53;3.33;;;13.40;80.90;;;;;;5186527;28;20128;-31
2021/12/20 09:11:32;;;;;;;5.37;2.50;;;13.40;81.00;;;;;;5187353;28;20041;-30
2021/12/20 09:14:09;;;;;;;5.53;3.10;;;13.40;81.10;;;;;;5185678;28;20242;-30
2021/12/20 09:16:42;;;;;;;5.20;3.37;;;13.30;80.80;;;;;;5186803;28;20050;-31
2021/12/20 09:19:17;;;;;;;4.60;2.63;;;13.40;80.80;;;;;;5169060;28;20042;-31
2021/12/20 09:21:52;;;;;;;4.23;2.30;;;13.30;80.80;;;;;;5186147;28;20084;-30
2021/12/20 09:24:25;;;;;;;7.77;5.23;;;13.30;80.70;;;;;;5186584;28;20085;-31
2021/12/20 09:26:56;;;;;;;9.13;5.32;;;13.20;80.90;;;;;;5186616;28;20041;-30
2021/12/20 09:29:28;;;;;;;11.63;6.70;;;13.20;81.00;;;;;;5186482;28;20053;-31
2021/12/20 09:31:59;;;;;;;4.30;2.70;;;13.20;81.00;;;;;;5168992;28;20049;-31
2021/12/20 09:34:31;;;;;;;9.67;5.50;;;13.10;81.00;;;;;;5186206;28;20103;-31
2021/12/20 09:37:07;;;;;;;6.70;4.17;;;13.10;81.20;;;;;;5189801;28;20050;-30
2021/12/20 09:39:39;;;;;;;7.73;3.77;;;13.00;80.50;;;;;;5190818;28;20069;-30
2021/12/20 09:42:12;;;;;;;7.47;3.53;;;13.00;80.70;;;;;;5156476;28;20053;-30
2021/12/20 09:44:44;;;;;;;6.90;4.15;;;13.00;80.80;;;;;;5190217;28;20073;-30
2021/12/20 09:47:18;;;;;;;6.90;4.20;;;13.00;80.80;;;;;;5190471;28;20100;-30
2021/12/20 09:49:55;;;;;;;5.80;2.83;;;13.00;80.50;;;;;;5173092;28;20042;-30
2021/12/20 09:52:28;;;;;;;9.63;6.10;;;13.00;81.00;;;;;;5157078;28;20050;-31
2021/12/20 09:55:05;;;;;;;5.10;3.03;;;13.00;81.00;;;;;;5173148;28;20384;-30
2021/12/20 09:57:40;;;;;;;6.20;3.70;;;12.90;80.50;;;;;;5188648;28;20077;-30
2021/12/20 10:00:18;;;;;;;6.07;3.07;;;12.90;80.60;;;;;;5190337;28;20045;-30
2021/12/20 10:02:54;;;;;;;7.13;4.10;;;13.00;80.70;;;;;;5190274;28;20076;-30
2021/12/20 10:05:29;;;;;;;7.70;4.30;;;13.00;80.20;;;;;;5189715;28;20050;-30
2021/12/20 10:08:14;;;;;;;4.83;2.97;;;13.00;80.50;;;;;;5174425;28;20172;-30
2021/12/20 10:10:52;;;;;;;8.70;4.60;;;13.00;80.60;;;;;;5174228;28;20467;-31
2021/12/20 10:13:50;;;;;;;6.07;3.43;;;13.00;80.60;;;;;;5189730;28;20136;-31
2021/12/20 10:16:22;;;;;;;9.33;4.90;;;13.00;80.90;;;;;;5189948;28;20042;-30
2021/12/20 10:18:54;;;;;;;7.05;4.13;;;12.90;80.20;;;;;;5172492;28;20053;-31
2021/12/20 10:21:41;;;;;;;6.60;4.23;;;12.90;80.00;;;;;;5172858;28;20121;-31
2021/12/20 10:24:29;;;;;;;6.87;3.03;;;12.80;79.90;;;;;;5171531;28;20058;-30
2021/12/20 10:27:00;;;;;;;9.43;5.10;;;12.80;79.90;;;;;;5172639;28;20046;-31
2021/12/20 10:29:35;;;;;;;7.20;4.33;;;12.80;80.10;;;;;;5155863;28;20080;-30
2021/12/20 10:32:07;;;;;;;8.50;5.73;;;12.80;79.50;;;;;;5189669;28;20154;-30
2021/12/20 10:34:38;;;;;;;8.93;4.20;;;12.80;79.50;;;;;;5171887;28;20535;-31
2021/12/20 10:37:09;;;;;;;9.50;6.10;;;12.80;79.30;;;;;;5189575;28;20038;-31
2021/12/20 10:39:43;;;;;;;6.93;5.00;;;12.90;79.40;;;;;;5189517;28;20065;-30
2021/12/20 10:42:22;;;;;;;8.33;5.23;;;13.00;79.40;;;;;;5172474;28;20045;-31
2021/12/20 10:45:08;;;;;;;13.63;6.60;;;13.10;79.20;;;;;;5189104;28;20069;-31
2021/12/20 10:47:39;;;;;;;7.47;4.43;;;13.20;79.60;;;;;;5188299;28;20096;-31
2021/12/20 10:50:32;;;;;;;8.87;4.77;;;13.10;78.30;;;;;;5172128;28;20093;-31
2021/12/20 10:53:18;;;;;;;5.97;3.50;;;13.00;78.40;;;;;;5171819;28;20053;-31
2021/12/20 10:55:56;;;;;;;11.53;9.20;;;13.00;78.60;;;;;;5171707;28;20076;-31
2021/12/20 10:58:36;;;;;;;10.13;7.87;;;13.10;78.50;;;;;;5155864;28;20042;-31
2021/12/20 11:04:18;;;;;;;16.83;10.17;;;13.20;78.10;;;;;;5188978;28;20057;-31
2021/12/20 11:09:31;;;;;;;12.60;8.00;;;13.30;78.50;;;;;;5172664;28;20065;-31
2021/12/20 11:12:07;;;;;;;12.87;7.60;;;13.30;77.40;;;;;;5171253;28;20054;-31
2021/12/20 11:14:44;;;;;;;6.37;4.03;;;13.30;77.10;;;;;;5188783;28;20054;-30
2021/12/20 11:17:19;;;;;;;8.67;4.77;;;13.20;76.10;;;;;;5188846;28;20053;-31
2021/12/20 11:19:52;;;;;;;7.27;3.13;;;13.10;76.20;;;;;;5188732;28;20049;-30
2021/12/20 11:22:32;;;;;;;7.30;3.73;;;13.20;76.20;;;;;;5188677;28;20058;-30
2021/12/20 11:25:05;;;;;;;4.47;2.47;;;13.20;75.90;;;;;;5171360;28;20483;-31
2021/12/20 11:27:53;;;;;;;5.30;2.63;;;13.10;75.90;;;;;;5171375;28;20045;-31
2021/12/20 11:30:28;;;;;;;8.00;4.07;;;13.00;75.30;;;;;;5188952;28;20446;-30
2021/12/20 11:32:59;;;;;;;7.40;4.07;;;13.10;76.20;;;;;;5138971;28;20104;-31
2021/12/20 11:35:32;;;;;;;8.03;3.73;;;13.20;76.30;;;;;;5188560;28;20046;-31
2021/12/20 11:38:03;;;;;;;7.60;4.68;;;13.20;76.60;;;;;;5188395;28;20483;-31
2021/12/20 11:40:34;;;;;;;9.60;7.50;;;13.20;76.10;;;;;;5171098;28;20049;-31
2021/12/20 11:43:05;;;;;;;8.77;5.80;;;13.20;76.20;;;;;;5188295;28;20045;-31
2021/12/20 11:45:37;;;;;;;19.77;14.07;;;13.20;76.10;;;;;;5170450;28;20077;-31
2021/12/20 11:48:11;;;;;;;39.23;27.97;;;13.30;76.00;;;;;;5188025;28;20080;-31
2021/12/20 11:50:45;;;;;;;23.20;14.27;;;13.30;75.90;;;;;;5170981;28;20104;-31
2021/12/20 11:53:17;;;;;;;68.43;35.63;;;13.30;75.30;;;;;;5188060;28;20042;-33
2021/12/20 11:55:54;;;;;;;87.20;38.57;;;13.30;75.10;;;;;;5187571;28;20048;-32
2021/12/20 11:58:28;;;;;;;88.13;39.40;;;13.30;75.50;;;;;;5187673;28;20081;-30
2021/12/20 12:01:05;;;;;;;42.90;24.40;;;13.30;75.20;;;;;;5170653;28;20400;-31
2021/12/20 12:03:38;;;;;;;62.00;36.23;;;13.20;75.30;;;;;;5187785;28;20479;-31
2021/12/20 12:06:13;;;;;;;57.03;30.95;;;13.20;75.40;;;;;;5187744;28;20041;-30
2021/12/20 12:08:52;;;;;;;91.20;45.93;;;13.20;75.60;;;;;;5170740;28;20045;-30
2021/12/20 12:11:24;;;;;;;40.83;21.87;;;13.10;75.10;;;;;;5187492;28;20060;-30
2021/12/20 12:14:01;;;;;;;62.37;32.87;;;12.90;75.50;;;;;;5187564;28;20046;-30
2021/12/20 12:16:56;;;;;;;55.33;33.00;;;12.80;76.20;;;;;;5187521;28;20042;-30
2021/12/20 12:19:40;;;;;;;118.40;56.30;;;12.80;77.00;;;;;;5187840;28;20038;-31
2021/12/20 12:22:26;;;;;;;38.40;21.33;;;12.80;77.20;;;;;;5187291;28;20053;-31
2021/12/20 12:24:57;;;;;;;6.73;3.10;;;12.90;77.70;;;;;;5187030;28;20092;-31
2021/12/20 12:27:29;;;;;;;17.57;10.77;;;13.00;78.50;;;;;;5169863;28;20092;-31
2021/12/20 12:30:15;;;;;;;32.97;22.33;;;13.10;78.90;;;;;;5170468;28;20046;-31
2021/12/20 12:32:49;;;;;;;24.27;17.57;;;13.10;77.30;;;;;;5187107;28;20054;-31
2021/12/20 12:35:39;;;;;;;4.30;2.40;;;13.20;77.30;;;;;;5187155;28;20045;-32
2021/12/20 12:38:22;;;;;;;52.20;26.83;;;13.20;77.10;;;;;;5187459;28;20056;-30
2021/12/20 12:41:08;;;;;;;30.40;14.47;;;13.20;77.10;;;;;;5187223;28;20048;-31
2021/12/20 12:43:52;;;;;;;59.27;27.80;;;13.30;77.70;;;;;;5186740;28;20561;-31
2021/12/20 12:46:35;;;;;;;112.03;50.43;;;13.40;77.10;;;;;;5170040;28;20038;-31
2021/12/20 12:49:29;;;;;;;44.37;18.33;;;13.40;76.50;;;;;;5187087;28;20049;-31
2021/12/20 12:52:04;;;;;;;4.70;2.70;;;13.40;76.90;;;;;;5186751;28;20391;-31
2021/12/20 13:21:59;;;;;;;4.17;2.50;;;13.50;81.00;;;;;;5181804;28;20061;-31
2021/12/20 13:24:31;;;;;;;4.83;2.70;;;13.50;80.40;;;;;;5168946;28;20060;-31
2021/12/20 13:27:09;;;;;;;5.67;2.60;;;13.50;80.40;;;;;;5186425;28;20104;-33
2021/12/20 13:29:40;;;;;;;8.93;4.37;;;13.40;80.20;;;;;;5186195;28;20041;-34
2021/12/20 13:32:13;;;;;;;10.20;4.57;;;13.50;79.80;;;;;;5153091;28;20120;-34
2021/12/20 13:34:44;;;;;;;9.57;5.23;;;13.50;79.80;;;;;;5153796;28;20481;-31
2021/12/20 13:37:15;;;;;;;10.60;4.60;;;13.50;79.70;;;;;;5186337;28;20046;-33
2021/12/20 13:39:54;;;;;;;;;;;13.60;79.70;;;;;;5169690;28;20068;-32
2021/12/20 13:42:26;;;;;;;8.77;3.77;;;13.60;79.80;;;;;;5171369;28;19929;-32
2021/12/20 13:44:57;;;;;;;7.10;3.33;;;13.50;79.70;;;;;;5185825;28;20053;-32
2021/12/20 13:47:29;;;;;;;5.07;2.60;;;13.60;79.80;;;;;;5186483;28;20057;-32
2021/12/20 13:50:16;;;;;;;4.77;2.40;;;13.60;79.90;;;;;;5151990;28;20045;-31
2021/12/20 13:53:06;;;;;;;6.87;4.90;;;13.60;79.80;;;;;;5186243;28;20046;-30
2021/12/20 13:55:38;;;;;;;6.03;4.10;;;13.50;79.70;;;;;;5185278;28;20049;-30
2021/12/20 13:58:09;;;;;;;23.27;17.30;;;13.50;79.80;;;;;;5168649;28;20099;-30
2021/12/20 14:00:47;;;;;;;24.87;19.33;;;13.50;79.70;;;;;;5170290;28;20038;-30
2021/12/20 14:03:18;;;;;;;13.73;9.17;;;13.60;79.70;;;;;;5168803;28;20057;-30
2021/12/20 14:05:49;;;;;;;9.00;6.17;;;13.70;79.60;;;;;;5186296;28;20391;-31
2021/12/20 14:08:23;;;;;;;10.07;6.37;;;13.80;79.40;;;;;;5169252;28;20123;-30
2021/12/20 14:10:55;;;;;;;7.43;4.90;;;13.80;79.10;;;;;;5169195;28;20077;-33
2021/12/20 14:13:28;;;;;;;7.23;4.90;;;13.80;78.60;;;;;;5185828;28;20057;-31
2021/12/20 14:16:02;;;;;;;6.38;4.68;;;13.80;78.50;;;;;;5186134;28;20051;-30
2021/12/20 14:18:33;;;;;;;7.80;6.63;;;13.90;78.60;;;;;;5168771;28;20487;-31
2021/12/20 14:21:05;;;;;;;7.70;5.43;;;13.90;78.30;;;;;;5186416;28;20453;-31
2021/12/20 14:23:49;;;;;;;5.80;4.03;;;13.90;78.30;;;;;;5172000;28;20054;-31
2021/12/20 14:26:26;;;;;;;5.13;2.67;;;13.90;78.30;;;;;;5157872;28;20499;-30
2021/12/20 14:29:09;;;;;;;4.87;2.60;;;13.90;78.30;;;;;;5189752;28;20049;-31
2021/12/20 14:31:50;;;;;;;11.02;4.15;;;13.90;78.60;;;;;;5189990;28;20050;-32
2021/12/20 14:34:30;;;;;;;5.07;3.27;;;13.90;78.60;;;;;;5158025;28;20519;-30
2021/12/20 14:37:09;;;;;;;4.53;2.60;;;13.90;78.30;;;;;;5172964;28;20088;-32
2021/12/20 14:39:44;;;;;;;4.80;2.87;;;13.90;78.20;;;;;;5189746;28;20124;-31
2021/12/20 14:42:17;;;;;;;10.90;7.33;;;13.90;77.90;;;;;;5172528;28;20479;-30
2021/12/20 14:44:56;;;;;;;6.15;4.07;;;13.80;77.70;;;;;;5156214;28;20045;-30
2021/12/20 14:47:39;;;;;;;7.97;4.80;;;13.80;77.90;;;;;;5189833;28;20089;-31
2021/12/20 14:50:26;;;;;;;6.20;3.40;;;13.80;78.00;;;;;;5189660;28;20117;-31
2021/12/20 14:53:19;;;;;;;6.27;2.80;;;13.80;78.00;;;;;;5189141;28;20050;-32
2021/12/20 14:55:50;;;;;;;4.53;2.90;;;13.80;78.20;;;;;;5189660;28;20045;-32
2021/12/20 14:58:21;;;;;;;5.43;3.37;;;13.80;77.90;;;;;;5171671;28;20045;-30
2021/12/20 15:00:52;;;;;;;5.43;2.87;;;13.80;77.90;;;;;;5189217;28;20450;-31